sensor_id;sensor_type;location;lat;lon;timestamp;temperature;humidity
15707;DHT22;7953;54.302;10.128;2022-09-21T00:01:27;7.90;99.90
15707;DHT22;7953;54.302;10.128;2022-09-21T00:03:55;7.90;99.90
15707;DHT22;7953;54.302;10.128;2022-09-21T00:06:23;7.90;99.90
15707;DHT22;7953;54.302;10.128;2022-09-21T00:08:51;7.90;99.90
15707;DHT22;7953;54.302;10.128;2022-09-21T00:11:19;7.80;99.90
15707;DHT22;7953;54.302;10.128;2022-09-21T00:13:52;7.80;99.90
15707;DHT22;7953;54.302;10.128;2022-09-21T00:16:20;7.80;99.90
15707;DHT22;7953;54.302;10.128;2022-09-21T00:18:47;7.80;99.90
15707;DHT22;7953;54.302;10.128;2022-09-21T00:21:14;7.80;99.90
15707;DHT22;7953;54.302;10.128;2022-09-21T00:23:42;7.80;99.90
15707;DHT22;7953;54.302;10.128;2022-09-21T00:26:11;7.80;99.90
15707;DHT22;7953;54.302;10.128;2022-09-21T00:28:38;7.80;99.90
15707;DHT22;7953;54.302;10.128;2022-09-21T00:31:09;7.80;99.90
15707;DHT22;7953;54.302;10.128;2022-09-21T00:33:37;7.70;99.90
15707;DHT22;7953;54.302;10.128;2022-09-21T00:36:05;7.70;99.90
15707;DHT22;7953;54.302;10.128;2022-09-21T00:38:33;7.70;99.90
15707;DHT22;7953;54.302;10.128;2022-09-21T00:41:00;7.70;99.90
15707;DHT22;7953;54.302;10.128;2022-09-21T00:43:27;7.70;99.90
15707;DHT22;7953;54.302;10.128;2022-09-21T00:45:59;7.70;99.90
15707;DHT22;7953;54.302;10.128;2022-09-21T00:48:29;7.70;99.90
15707;DHT22;7953;54.302;10.128;2022-09-21T00:50:59;7.70;99.90
15707;DHT22;7953;54.302;10.128;2022-09-21T00:53:28;7.60;99.90
15707;DHT22;7953;54.302;10.128;2022-09-21T00:55:57;7.60;99.90
15707;DHT22;7953;54.302;10.128;2022-09-21T00:58:27;7.60;99.90
15707;DHT22;7953;54.302;10.128;2022-09-21T01:00:57;7.60;99.90
15707;DHT22;7953;54.302;10.128;2022-09-21T01:03:25;7.50;99.90
15707;DHT22;7953;54.302;10.128;2022-09-21T01:05:53;7.50;99.90
15707;DHT22;7953;54.302;10.128;2022-09-21T01:08:21;7.50;99.90
15707;DHT22;7953;54.302;10.128;2022-09-21T01:11:05;7.50;99.90
15707;DHT22;7953;54.302;10.128;2022-09-21T01:13:45;7.50;99.90
15707;DHT22;7953;54.302;10.128;2022-09-21T01:16:16;7.50;99.90
15707;DHT22;7953;54.302;10.128;2022-09-21T01:18:50;7.60;99.90
15707;DHT22;7953;54.302;10.128;2022-09-21T01:21:20;7.50;99.90
15707;DHT22;7953;54.302;10.128;2022-09-21T01:29:42;7.50;99.90
15707;DHT22;7953;54.302;10.128;2022-09-21T01:32:14;7.50;99.90
15707;DHT22;7953;54.302;10.128;2022-09-21T01:34:47;7.50;99.90
15707;DHT22;7953;54.302;10.128;2022-09-21T01:37:18;7.40;99.90
15707;DHT22;7953;54.302;10.128;2022-09-21T01:39:50;7.40;99.90
15707;DHT22;7953;54.302;10.128;2022-09-21T01:42:19;7.40;99.90
15707;DHT22;7953;54.302;10.128;2022-09-21T01:44:48;7.40;99.90
15707;DHT22;7953;54.302;10.128;2022-09-21T01:47:17;7.40;99.90
15707;DHT22;7953;54.302;10.128;2022-09-21T01:49:47;7.40;99.90
15707;DHT22;7953;54.302;10.128;2022-09-21T01:52:20;7.40;99.90
15707;DHT22;7953;54.302;10.128;2022-09-21T01:54:50;7.40;99.90
15707;DHT22;7953;54.302;10.128;2022-09-21T01:57:24;7.40;99.90
15707;DHT22;7953;54.302;10.128;2022-09-21T01:59:55;7.30;99.90
15707;DHT22;7953;54.302;10.128;2022-09-21T02:02:38;7.40;99.90
15707;DHT22;7953;54.302;10.128;2022-09-21T02:05:07;7.30;99.90
15707;DHT22;7953;54.302;10.128;2022-09-21T02:07:35;7.30;99.90
15707;DHT22;7953;54.302;10.128;2022-09-21T02:10:04;7.30;99.90
15707;DHT22;7953;54.302;10.128;2022-09-21T02:12:33;7.30;99.90
15707;DHT22;7953;54.302;10.128;2022-09-21T02:15:02;7.30;99.90
15707;DHT22;7953;54.302;10.128;2022-09-21T02:17:35;7.30;99.90
15707;DHT22;7953;54.302;10.128;2022-09-21T02:20:13;7.30;99.90
15707;DHT22;7953;54.302;10.128;2022-09-21T02:22:50;7.20;99.90
15707;DHT22;7953;54.302;10.128;2022-09-21T02:25:27;7.20;99.90
15707;DHT22;7953;54.302;10.128;2022-09-21T02:28:03;7.20;99.90
15707;DHT22;7953;54.302;10.128;2022-09-21T02:30:34;7.20;99.90
15707;DHT22;7953;54.302;10.128;2022-09-21T02:33:07;7.20;99.90
15707;DHT22;7953;54.302;10.128;2022-09-21T02:35:38;7.10;99.90
15707;DHT22;7953;54.302;10.128;2022-09-21T02:38:11;7.20;99.90
15707;DHT22;7953;54.302;10.128;2022-09-21T02:40:46;7.10;99.90
15707;DHT22;7953;54.302;10.128;2022-09-21T02:43:20;7.10;99.90
15707;DHT22;7953;54.302;10.128;2022-09-21T02:45:53;7.10;99.90
15707;DHT22;7953;54.302;10.128;2022-09-21T02:48:27;7.10;99.90
15707;DHT22;7953;54.302;10.128;2022-09-21T02:50:58;7.10;99.90
15707;DHT22;7953;54.302;10.128;2022-09-21T02:53:30;7.00;99.90
15707;DHT22;7953;54.302;10.128;2022-09-21T02:55:59;7.00;99.90
15707;DHT22;7953;54.302;10.128;2022-09-21T02:58:29;7.00;99.90
15707;DHT22;7953;54.302;10.128;2022-09-21T03:00:58;7.00;99.90
15707;DHT22;7953;54.302;10.128;2022-09-21T03:03:25;7.00;99.90
15707;DHT22;7953;54.302;10.128;2022-09-21T03:05:53;7.00;99.90
15707;DHT22;7953;54.302;10.128;2022-09-21T03:08:21;7.00;99.90
15707;DHT22;7953;54.302;10.128;2022-09-21T03:10:47;6.90;99.90
15707;DHT22;7953;54.302;10.128;2022-09-21T03:13:15;6.90;99.90
15707;DHT22;7953;54.302;10.128;2022-09-21T03:15:42;6.90;99.90
15707;DHT22;7953;54.302;10.128;2022-09-21T03:18:11;6.90;99.90
15707;DHT22;7953;54.302;10.128;2022-09-21T03:20:42;6.90;99.90
15707;DHT22;7953;54.302;10.128;2022-09-21T03:23:10;6.90;99.90
15707;DHT22;7953;54.302;10.128;2022-09-21T03:25:37;6.90;99.90
15707;DHT22;7953;54.302;10.128;2022-09-21T03:28:05;6.90;99.90
15707;DHT22;7953;54.302;10.128;2022-09-21T03:30:31;6.80;99.90
15707;DHT22;7953;54.302;10.128;2022-09-21T03:32:59;6.80;99.90
15707;DHT22;7953;54.302;10.128;2022-09-21T03:35:27;6.80;99.90
15707;DHT22;7953;54.302;10.128;2022-09-21T03:37:54;6.80;99.90
15707;DHT22;7953;54.302;10.128;2022-09-21T03:40:22;6.70;99.90
15707;DHT22;7953;54.302;10.128;2022-09-21T03:42:54;6.80;99.90
15707;DHT22;7953;54.302;10.128;2022-09-21T03:45:21;6.80;99.90
15707;DHT22;7953;54.302;10.128;2022-09-21T03:47:53;6.70;99.90
15707;DHT22;7953;54.302;10.128;2022-09-21T03:50:20;6.70;99.90
15707;DHT22;7953;54.302;10.128;2022-09-21T03:52:48;6.70;99.90
15707;DHT22;7953;54.302;10.128;2022-09-21T03:55:15;6.70;99.90
15707;DHT22;7953;54.302;10.128;2022-09-21T03:57:42;6.70;99.90
15707;DHT22;7953;54.302;10.128;2022-09-21T04:00:10;6.70;99.90
15707;DHT22;7953;54.302;10.128;2022-09-21T04:02:37;6.60;99.90
15707;DHT22;7953;54.302;10.128;2022-09-21T04:05:06;6.60;99.90
15707;DHT22;7953;54.302;10.128;2022-09-21T04:07:33;6.60;99.90
15707;DHT22;7953;54.302;10.128;2022-09-21T04:10:03;6.60;99.90
15707;DHT22;7953;54.302;10.128;2022-09-21T04:12:30;6.60;99.90
15707;DHT22;7953;54.302;10.128;2022-09-21T04:14:59;6.60;99.90
15707;DHT22;7953;54.302;10.128;2022-09-21T04:17:26;6.50;99.90
15707;DHT22;7953;54.302;10.128;2022-09-21T04:19:53;6.60;99.90
15707;DHT22;7953;54.302;10.128;2022-09-21T04:22:19;6.50;99.90
15707;DHT22;7953;54.302;10.128;2022-09-21T04:24:49;6.50;99.90
15707;DHT22;7953;54.302;10.128;2022-09-21T04:27:17;6.50;99.90
15707;DHT22;7953;54.302;10.128;2022-09-21T04:29:44;6.50;99.90
15707;DHT22;7953;54.302;10.128;2022-09-21T04:32:11;6.50;99.90
15707;DHT22;7953;54.302;10.128;2022-09-21T04:34:38;6.50;99.90
15707;DHT22;7953;54.302;10.128;2022-09-21T04:37:06;6.50;99.90
15707;DHT22;7953;54.302;10.128;2022-09-21T04:39:33;6.50;99.90
15707;DHT22;7953;54.302;10.128;2022-09-21T04:42:01;6.50;99.90
15707;DHT22;7953;54.302;10.128;2022-09-21T04:44:30;6.40;99.90
15707;DHT22;7953;54.302;10.128;2022-09-21T04:46:57;6.40;99.90
15707;DHT22;7953;54.302;10.128;2022-09-21T04:49:24;6.40;99.90
15707;DHT22;7953;54.302;10.128;2022-09-21T04:51:51;6.40;99.90
15707;DHT22;7953;54.302;10.128;2022-09-21T04:54:18;6.40;99.90
15707;DHT22;7953;54.302;10.128;2022-09-21T04:56:45;6.40;99.90
15707;DHT22;7953;54.302;10.128;2022-09-21T04:59:12;6.30;99.90
15707;DHT22;7953;54.302;10.128;2022-09-21T05:01:40;6.30;99.90
15707;DHT22;7953;54.302;10.128;2022-09-21T05:04:07;6.30;99.90
15707;DHT22;7953;54.302;10.128;2022-09-21T05:06:34;6.30;99.90
15707;DHT22;7953;54.302;10.128;2022-09-21T05:09:01;6.30;99.90
15707;DHT22;7953;54.302;10.128;2022-09-21T05:11:45;6.30;99.90
15707;DHT22;7953;54.302;10.128;2022-09-21T05:14:12;6.30;99.90
15707;DHT22;7953;54.302;10.128;2022-09-21T05:16:40;6.30;99.90
15707;DHT22;7953;54.302;10.128;2022-09-21T05:19:07;6.30;99.90
15707;DHT22;7953;54.302;10.128;2022-09-21T05:21:34;6.30;99.90
15707;DHT22;7953;54.302;10.128;2022-09-21T05:24:02;6.20;99.90
15707;DHT22;7953;54.302;10.128;2022-09-21T05:26:29;6.20;99.90
15707;DHT22;7953;54.302;10.128;2022-09-21T05:28:56;6.20;99.90
15707;DHT22;7953;54.302;10.128;2022-09-21T05:31:35;6.20;99.90
15707;DHT22;7953;54.302;10.128;2022-09-21T05:34:16;6.20;99.90
15707;DHT22;7953;54.302;10.128;2022-09-21T05:36:51;6.20;99.90
15707;DHT22;7953;54.302;10.128;2022-09-21T05:39:20;6.20;99.90
15707;DHT22;7953;54.302;10.128;2022-09-21T05:41:48;6.20;99.90
15707;DHT22;7953;54.302;10.128;2022-09-21T05:44:15;6.20;99.90
15707;DHT22;7953;54.302;10.128;2022-09-21T05:46:47;6.30;99.90
15707;DHT22;7953;54.302;10.128;2022-09-21T05:49:19;6.30;99.90
15707;DHT22;7953;54.302;10.128;2022-09-21T05:51:57;6.30;99.90
15707;DHT22;7953;54.302;10.128;2022-09-21T05:54:37;6.30;99.90
15707;DHT22;7953;54.302;10.128;2022-09-21T05:57:14;6.30;99.90
15707;DHT22;7953;54.302;10.128;2022-09-21T05:59:50;6.30;99.90
15707;DHT22;7953;54.302;10.128;2022-09-21T06:02:30;6.30;99.90
15707;DHT22;7953;54.302;10.128;2022-09-21T06:05:06;6.40;99.90
15707;DHT22;7953;54.302;10.128;2022-09-21T06:07:36;6.30;99.90
15707;DHT22;7953;54.302;10.128;2022-09-21T06:10:03;6.40;99.90
15707;DHT22;7953;54.302;10.128;2022-09-21T06:12:30;6.40;99.90
15707;DHT22;7953;54.302;10.128;2022-09-21T06:14:57;6.50;99.90
15707;DHT22;7953;54.302;10.128;2022-09-21T06:17:24;6.50;99.90
15707;DHT22;7953;54.302;10.128;2022-09-21T06:19:52;6.60;99.90
15707;DHT22;7953;54.302;10.128;2022-09-21T06:22:20;6.60;99.90
15707;DHT22;7953;54.302;10.128;2022-09-21T06:24:47;6.60;99.90
15707;DHT22;7953;54.302;10.128;2022-09-21T06:27:14;6.60;99.90
15707;DHT22;7953;54.302;10.128;2022-09-21T06:29:41;6.80;99.90
15707;DHT22;7953;54.302;10.128;2022-09-21T06:32:08;6.80;99.90
15707;DHT22;7953;54.302;10.128;2022-09-21T06:34:35;6.90;99.90
15707;DHT22;7953;54.302;10.128;2022-09-21T06:37:02;6.90;99.90
15707;DHT22;7953;54.302;10.128;2022-09-21T06:39:30;6.90;99.90
15707;DHT22;7953;54.302;10.128;2022-09-21T06:41:57;7.00;99.90
15707;DHT22;7953;54.302;10.128;2022-09-21T06:44:24;7.10;99.90
15707;DHT22;7953;54.302;10.128;2022-09-21T06:46:51;7.10;99.90
15707;DHT22;7953;54.302;10.128;2022-09-21T06:49:18;7.20;99.90
15707;DHT22;7953;54.302;10.128;2022-09-21T06:51:46;7.30;99.90
15707;DHT22;7953;54.302;10.128;2022-09-21T06:54:14;7.40;99.90
15707;DHT22;7953;54.302;10.128;2022-09-21T06:56:43;7.50;99.90
15707;DHT22;7953;54.302;10.128;2022-09-21T06:59:10;7.60;99.90
15707;DHT22;7953;54.302;10.128;2022-09-21T07:01:37;7.60;99.90
15707;DHT22;7953;54.302;10.128;2022-09-21T07:04:04;7.70;99.90
15707;DHT22;7953;54.302;10.128;2022-09-21T07:06:33;7.70;99.90
15707;DHT22;7953;54.302;10.128;2022-09-21T07:09:00;7.90;99.90
15707;DHT22;7953;54.302;10.128;2022-09-21T07:11:27;7.90;99.90
15707;DHT22;7953;54.302;10.128;2022-09-21T07:13:56;8.00;99.90
15707;DHT22;7953;54.302;10.128;2022-09-21T07:16:24;8.10;99.90
15707;DHT22;7953;54.302;10.128;2022-09-21T07:18:52;8.20;99.90
15707;DHT22;7953;54.302;10.128;2022-09-21T07:21:19;8.40;99.90
15707;DHT22;7953;54.302;10.128;2022-09-21T07:23:46;8.50;99.90
15707;DHT22;7953;54.302;10.128;2022-09-21T07:26:13;8.60;99.90
15707;DHT22;7953;54.302;10.128;2022-09-21T07:28:40;8.80;99.90
15707;DHT22;7953;54.302;10.128;2022-09-21T07:31:11;8.90;99.90
15707;DHT22;7953;54.302;10.128;2022-09-21T07:33:38;9.00;99.90
15707;DHT22;7953;54.302;10.128;2022-09-21T07:36:06;9.10;99.90
15707;DHT22;7953;54.302;10.128;2022-09-21T07:38:36;9.20;99.90
15707;DHT22;7953;54.302;10.128;2022-09-21T07:41:04;9.30;99.90
15707;DHT22;7953;54.302;10.128;2022-09-21T07:43:32;9.40;99.90
15707;DHT22;7953;54.302;10.128;2022-09-21T07:45:59;9.60;99.90
15707;DHT22;7953;54.302;10.128;2022-09-21T07:48:28;9.70;99.90
15707;DHT22;7953;54.302;10.128;2022-09-21T07:51:00;9.80;99.90
15707;DHT22;7953;54.302;10.128;2022-09-21T07:53:29;9.90;99.90
15707;DHT22;7953;54.302;10.128;2022-09-21T07:56:00;10.00;99.90
15707;DHT22;7953;54.302;10.128;2022-09-21T07:58:28;10.00;99.90
15707;DHT22;7953;54.302;10.128;2022-09-21T08:01:12;10.10;99.90
15707;DHT22;7953;54.302;10.128;2022-09-21T08:03:40;10.20;99.90
15707;DHT22;7953;54.302;10.128;2022-09-21T08:06:07;10.20;99.90
15707;DHT22;7953;54.302;10.128;2022-09-21T08:08:34;10.40;99.90
15707;DHT22;7953;54.302;10.128;2022-09-21T08:11:02;10.50;99.90
15707;DHT22;7953;54.302;10.128;2022-09-21T08:13:29;10.60;99.90
15707;DHT22;7953;54.302;10.128;2022-09-21T08:15:57;10.70;99.90
15707;DHT22;7953;54.302;10.128;2022-09-21T08:18:24;10.80;99.90
15707;DHT22;7953;54.302;10.128;2022-09-21T08:20:56;10.90;99.90
15707;DHT22;7953;54.302;10.128;2022-09-21T08:23:24;11.10;99.90
15707;DHT22;7953;54.302;10.128;2022-09-21T08:25:57;11.20;99.90
15707;DHT22;7953;54.302;10.128;2022-09-21T08:28:25;11.30;99.90
15707;DHT22;7953;54.302;10.128;2022-09-21T08:30:52;11.50;99.90
15707;DHT22;7953;54.302;10.128;2022-09-21T08:33:19;11.60;99.90
15707;DHT22;7953;54.302;10.128;2022-09-21T08:35:51;11.80;99.90
15707;DHT22;7953;54.302;10.128;2022-09-21T08:38:20;12.10;99.90
15707;DHT22;7953;54.302;10.128;2022-09-21T08:40:48;12.40;99.90
15707;DHT22;7953;54.302;10.128;2022-09-21T08:43:19;12.90;99.90
15707;DHT22;7953;54.302;10.128;2022-09-21T08:45:49;13.40;99.90
15707;DHT22;7953;54.302;10.128;2022-09-21T08:48:20;14.00;99.90
15707;DHT22;7953;54.302;10.128;2022-09-21T08:50:50;14.50;99.90
15707;DHT22;7953;54.302;10.128;2022-09-21T08:53:22;15.10;99.90
15707;DHT22;7953;54.302;10.128;2022-09-21T08:55:54;15.60;99.90
15707;DHT22;7953;54.302;10.128;2022-09-21T08:58:23;16.00;99.90
15707;DHT22;7953;54.302;10.128;2022-09-21T09:01:07;16.40;99.90
15707;DHT22;7953;54.302;10.128;2022-09-21T09:03:51;16.90;99.90
15707;DHT22;7953;54.302;10.128;2022-09-21T09:06:26;17.40;99.90
15707;DHT22;7953;54.302;10.128;2022-09-21T09:09:15;17.80;99.90
15707;DHT22;7953;54.302;10.128;2022-09-21T09:11:57;18.30;99.90
15707;DHT22;7953;54.302;10.128;2022-09-21T09:14:52;18.70;99.90
15707;DHT22;7953;54.302;10.128;2022-09-21T09:17:28;19.00;99.90
15707;DHT22;7953;54.302;10.128;2022-09-21T09:20:02;19.30;99.90
15707;DHT22;7953;54.302;10.128;2022-09-21T09:22:35;19.60;99.90
15707;DHT22;7953;54.302;10.128;2022-09-21T09:25:15;19.90;99.90
15707;DHT22;7953;54.302;10.128;2022-09-21T09:27:43;20.00;99.90
15707;DHT22;7953;54.302;10.128;2022-09-21T09:30:15;19.80;99.90
15707;DHT22;7953;54.302;10.128;2022-09-21T09:32:48;19.80;99.90
15707;DHT22;7953;54.302;10.128;2022-09-21T09:35:24;20.00;99.90
15707;DHT22;7953;54.302;10.128;2022-09-21T09:37:55;20.10;99.90
15707;DHT22;7953;54.302;10.128;2022-09-21T09:40:38;20.00;99.90
15707;DHT22;7953;54.302;10.128;2022-09-21T09:43:09;20.00;99.90
15707;DHT22;7953;54.302;10.128;2022-09-21T09:45:46;20.10;99.90
15707;DHT22;7953;54.302;10.128;2022-09-21T09:48:23;20.10;99.90
15707;DHT22;7953;54.302;10.128;2022-09-21T09:50:55;20.10;99.90
15707;DHT22;7953;54.302;10.128;2022-09-21T09:53:23;20.10;99.90
15707;DHT22;7953;54.302;10.128;2022-09-21T09:55:53;20.10;99.90
15707;DHT22;7953;54.302;10.128;2022-09-21T09:58:34;20.20;99.90
15707;DHT22;7953;54.302;10.128;2022-09-21T10:01:01;20.40;99.90
15707;DHT22;7953;54.302;10.128;2022-09-21T10:03:29;20.20;99.90
15707;DHT22;7953;54.302;10.128;2022-09-21T10:05:56;19.90;99.90
15707;DHT22;7953;54.302;10.128;2022-09-21T10:08:39;19.70;99.90
15707;DHT22;7953;54.302;10.128;2022-09-21T10:11:10;19.70;99.90
15707;DHT22;7953;54.302;10.128;2022-09-21T10:13:38;19.60;99.90
15707;DHT22;7953;54.302;10.128;2022-09-21T10:16:11;19.40;99.90
15707;DHT22;7953;54.302;10.128;2022-09-21T10:18:44;18.90;99.90
15707;DHT22;7953;54.302;10.128;2022-09-21T10:21:17;18.90;99.90
15707;DHT22;7953;54.302;10.128;2022-09-21T10:23:47;18.90;99.90
15707;DHT22;7953;54.302;10.128;2022-09-21T10:26:17;19.10;99.90
15707;DHT22;7953;54.302;10.128;2022-09-21T10:28:55;19.20;99.90
15707;DHT22;7953;54.302;10.128;2022-09-21T10:31:24;19.20;99.90
15707;DHT22;7953;54.302;10.128;2022-09-21T10:33:54;19.20;99.90
15707;DHT22;7953;54.302;10.128;2022-09-21T10:36:32;19.20;99.90
15707;DHT22;7953;54.302;10.128;2022-09-21T10:39:18;19.10;99.90
15707;DHT22;7953;54.302;10.128;2022-09-21T10:41:58;19.10;99.90
15707;DHT22;7953;54.302;10.128;2022-09-21T10:44:28;18.80;99.90
15707;DHT22;7953;54.302;10.128;2022-09-21T10:47:01;18.60;99.90
15707;DHT22;7953;54.302;10.128;2022-09-21T10:49:30;18.50;99.90
15707;DHT22;7953;54.302;10.128;2022-09-21T10:51:58;18.30;99.90
15707;DHT22;7953;54.302;10.128;2022-09-21T10:54:30;18.30;99.90
15707;DHT22;7953;54.302;10.128;2022-09-21T10:57:02;18.30;99.90
15707;DHT22;7953;54.302;10.128;2022-09-21T10:59:34;18.20;99.90
15707;DHT22;7953;54.302;10.128;2022-09-21T11:02:34;18.20;99.90
15707;DHT22;7953;54.302;10.128;2022-09-21T11:05:08;18.10;99.90
15707;DHT22;7953;54.302;10.128;2022-09-21T11:07:42;18.00;99.90
15707;DHT22;7953;54.302;10.128;2022-09-21T11:10:17;18.00;99.90
15707;DHT22;7953;54.302;10.128;2022-09-21T11:12:59;18.00;99.90
15707;DHT22;7953;54.302;10.128;2022-09-21T11:15:35;17.90;99.90
15707;DHT22;7953;54.302;10.128;2022-09-21T11:18:08;17.90;99.90
15707;DHT22;7953;54.302;10.128;2022-09-21T11:20:44;17.90;99.90
15707;DHT22;7953;54.302;10.128;2022-09-21T11:23:23;17.90;99.90
15707;DHT22;7953;54.302;10.128;2022-09-21T11:25:59;18.00;99.90
15707;DHT22;7953;54.302;10.128;2022-09-21T11:28:34;18.00;99.90
15707;DHT22;7953;54.302;10.128;2022-09-21T11:31:19;18.00;99.90
15707;DHT22;7953;54.302;10.128;2022-09-21T11:34:04;17.80;99.90
15707;DHT22;7953;54.302;10.128;2022-09-21T11:36:43;17.70;99.90
15707;DHT22;7953;54.302;10.128;2022-09-21T11:39:18;17.60;99.90
15707;DHT22;7953;54.302;10.128;2022-09-21T11:41:57;17.70;99.90
15707;DHT22;7953;54.302;10.128;2022-09-21T11:44:42;17.70;99.90
15707;DHT22;7953;54.302;10.128;2022-09-21T11:47:20;17.70;99.90
15707;DHT22;7953;54.302;10.128;2022-09-21T11:50:01;17.80;99.90
15707;DHT22;7953;54.302;10.128;2022-09-21T11:52:43;17.80;99.90
15707;DHT22;7953;54.302;10.128;2022-09-21T11:55:27;17.80;99.90
15707;DHT22;7953;54.302;10.128;2022-09-21T11:58:02;17.90;99.90
15707;DHT22;7953;54.302;10.128;2022-09-21T12:00:43;18.00;99.90
15707;DHT22;7953;54.302;10.128;2022-09-21T12:06:32;18.10;99.90
15707;DHT22;7953;54.302;10.128;2022-09-21T12:12:08;18.10;99.90
15707;DHT22;7953;54.302;10.128;2022-09-21T12:14:41;18.10;99.90
15707;DHT22;7953;54.302;10.128;2022-09-21T12:17:15;18.10;99.90
15707;DHT22;7953;54.302;10.128;2022-09-21T12:19:49;18.00;99.90
15707;DHT22;7953;54.302;10.128;2022-09-21T12:22:23;18.00;99.90
15707;DHT22;7953;54.302;10.128;2022-09-21T12:24:52;17.90;99.90
15707;DHT22;7953;54.302;10.128;2022-09-21T12:27:27;17.90;99.90
15707;DHT22;7953;54.302;10.128;2022-09-21T12:29:58;17.90;99.90
15707;DHT22;7953;54.302;10.128;2022-09-21T12:32:38;18.00;99.90
15707;DHT22;7953;54.302;10.128;2022-09-21T12:35:14;18.00;99.90
15707;DHT22;7953;54.302;10.128;2022-09-21T12:37:45;18.00;99.90
15707;DHT22;7953;54.302;10.128;2022-09-21T12:40:17;18.00;99.90
15707;DHT22;7953;54.302;10.128;2022-09-21T12:42:54;18.00;99.90
15707;DHT22;7953;54.302;10.128;2022-09-21T12:45:28;17.90;99.90
15707;DHT22;7953;54.302;10.128;2022-09-21T12:48:03;17.80;99.90
15707;DHT22;7953;54.302;10.128;2022-09-21T12:50:37;17.90;99.90
15707;DHT22;7953;54.302;10.128;2022-09-21T12:53:07;17.90;99.90
15707;DHT22;7953;54.302;10.128;2022-09-21T12:55:44;17.90;99.90
15707;DHT22;7953;54.302;10.128;2022-09-21T12:58:27;17.90;99.90
15707;DHT22;7953;54.302;10.128;2022-09-21T13:01:04;17.90;99.90
15707;DHT22;7953;54.302;10.128;2022-09-21T13:03:38;18.10;99.90
15707;DHT22;7953;54.302;10.128;2022-09-21T13:06:42;18.10;99.90
15707;DHT22;7953;54.302;10.128;2022-09-21T13:09:15;18.10;99.90
15707;DHT22;7953;54.302;10.128;2022-09-21T13:11:52;18.20;99.90
15707;DHT22;7953;54.302;10.128;2022-09-21T13:14:22;18.20;99.90
15707;DHT22;7953;54.302;10.128;2022-09-21T13:16:55;18.20;99.90
15707;DHT22;7953;54.302;10.128;2022-09-21T13:19:26;18.10;99.90
15707;DHT22;7953;54.302;10.128;2022-09-21T13:22:11;18.00;99.90
15707;DHT22;7953;54.302;10.128;2022-09-21T13:24:47;18.00;99.90
15707;DHT22;7953;54.302;10.128;2022-09-21T13:27:55;17.90;99.90
15707;DHT22;7953;54.302;10.128;2022-09-21T13:30:33;17.80;99.90
15707;DHT22;7953;54.302;10.128;2022-09-21T13:33:02;17.80;99.90
15707;DHT22;7953;54.302;10.128;2022-09-21T13:35:58;17.80;99.90
15707;DHT22;7953;54.302;10.128;2022-09-21T13:38:27;17.90;99.90
15707;DHT22;7953;54.302;10.128;2022-09-21T13:40:58;17.90;99.90
15707;DHT22;7953;54.302;10.128;2022-09-21T13:44:02;17.80;99.90
15707;DHT22;7953;54.302;10.128;2022-09-21T13:46:51;17.80;99.90
15707;DHT22;7953;54.302;10.128;2022-09-21T13:49:38;17.80;99.90
15707;DHT22;7953;54.302;10.128;2022-09-21T13:52:23;17.80;99.90
15707;DHT22;7953;54.302;10.128;2022-09-21T13:54:54;17.80;99.90
15707;DHT22;7953;54.302;10.128;2022-09-21T13:57:27;17.80;99.90
15707;DHT22;7953;54.302;10.128;2022-09-21T14:00:30;17.80;99.90
15707;DHT22;7953;54.302;10.128;2022-09-21T14:03:01;17.70;99.90
15707;DHT22;7953;54.302;10.128;2022-09-21T14:05:32;17.60;99.90
15707;DHT22;7953;54.302;10.128;2022-09-21T14:08:05;17.60;99.90
15707;DHT22;7953;54.302;10.128;2022-09-21T14:10:34;17.60;99.90
15707;DHT22;7953;54.302;10.128;2022-09-21T14:13:06;17.70;99.90
15707;DHT22;7953;54.302;10.128;2022-09-21T14:15:49;17.60;99.90
15707;DHT22;7953;54.302;10.128;2022-09-21T14:18:34;17.60;99.90
15707;DHT22;7953;54.302;10.128;2022-09-21T14:21:09;17.60;99.90
15707;DHT22;7953;54.302;10.128;2022-09-21T14:27:01;17.70;99.90
15707;DHT22;7953;54.302;10.128;2022-09-21T14:29:38;17.70;99.90
15707;DHT22;7953;54.302;10.128;2022-09-21T14:32:14;17.60;99.90
15707;DHT22;7953;54.302;10.128;2022-09-21T14:34:45;17.50;99.90
15707;DHT22;7953;54.302;10.128;2022-09-21T14:37:24;17.40;99.90
15707;DHT22;7953;54.302;10.128;2022-09-21T14:39:55;17.30;99.90
15707;DHT22;7953;54.302;10.128;2022-09-21T14:42:26;17.20;99.90
15707;DHT22;7953;54.302;10.128;2022-09-21T14:44:56;17.10;99.90
15707;DHT22;7953;54.302;10.128;2022-09-21T14:47:39;17.10;99.90
15707;DHT22;7953;54.302;10.128;2022-09-21T14:53:24;16.90;99.90
15707;DHT22;7953;54.302;10.128;2022-09-21T14:56:06;16.80;99.90
15707;DHT22;7953;54.302;10.128;2022-09-21T14:58:51;16.80;99.90
15707;DHT22;7953;54.302;10.128;2022-09-21T15:01:34;16.70;99.90
15707;DHT22;7953;54.302;10.128;2022-09-21T15:04:17;16.70;99.90
15707;DHT22;7953;54.302;10.128;2022-09-21T15:06:54;16.60;99.90
15707;DHT22;7953;54.302;10.128;2022-09-21T15:09:55;16.60;99.90
15707;DHT22;7953;54.302;10.128;2022-09-21T15:12:50;16.60;99.90
15707;DHT22;7953;54.302;10.128;2022-09-21T15:15:29;16.50;99.90
15707;DHT22;7953;54.302;10.128;2022-09-21T15:17:58;16.40;99.90
15707;DHT22;7953;54.302;10.128;2022-09-21T15:20:29;16.40;99.90
15707;DHT22;7953;54.302;10.128;2022-09-21T15:22:57;16.30;99.90
15707;DHT22;7953;54.302;10.128;2022-09-21T15:25:26;16.30;99.90
15707;DHT22;7953;54.302;10.128;2022-09-21T15:27:56;16.30;99.90
15707;DHT22;7953;54.302;10.128;2022-09-21T15:30:24;16.20;99.90
15707;DHT22;7953;54.302;10.128;2022-09-21T15:32:54;16.20;99.90
15707;DHT22;7953;54.302;10.128;2022-09-21T15:35:24;16.10;99.90
15707;DHT22;7953;54.302;10.128;2022-09-21T15:37:53;16.00;99.90
15707;DHT22;7953;54.302;10.128;2022-09-21T15:40:21;16.00;99.90
15707;DHT22;7953;54.302;10.128;2022-09-21T15:42:59;16.00;99.90
15707;DHT22;7953;54.302;10.128;2022-09-21T15:45:31;16.00;99.90
15707;DHT22;7953;54.302;10.128;2022-09-21T15:47:59;16.00;99.90
15707;DHT22;7953;54.302;10.128;2022-09-21T15:50:27;15.90;99.90
15707;DHT22;7953;54.302;10.128;2022-09-21T15:52:56;15.90;99.90
15707;DHT22;7953;54.302;10.128;2022-09-21T15:55:25;15.90;99.90
15707;DHT22;7953;54.302;10.128;2022-09-21T15:57:53;15.80;99.90
15707;DHT22;7953;54.302;10.128;2022-09-21T16:00:25;15.80;99.90
15707;DHT22;7953;54.302;10.128;2022-09-21T16:03:02;15.80;99.90
15707;DHT22;7953;54.302;10.128;2022-09-21T16:05:42;15.80;99.90
15707;DHT22;7953;54.302;10.128;2022-09-21T16:08:19;15.80;99.90
15707;DHT22;7953;54.302;10.128;2022-09-21T16:10:47;15.70;99.90
15707;DHT22;7953;54.302;10.128;2022-09-21T16:13:18;15.70;99.90
15707;DHT22;7953;54.302;10.128;2022-09-21T16:16:05;15.60;99.90
15707;DHT22;7953;54.302;10.128;2022-09-21T16:18:40;15.60;99.90
15707;DHT22;7953;54.302;10.128;2022-09-21T16:21:11;15.60;99.90
15707;DHT22;7953;54.302;10.128;2022-09-21T16:23:39;15.50;99.90
15707;DHT22;7953;54.302;10.128;2022-09-21T16:26:17;15.50;99.90
15707;DHT22;7953;54.302;10.128;2022-09-21T16:28:44;15.40;99.90